TimeAKST,TemperatureF,Dew PointF,Humidity,Sea Level PressureIn,VisibilityMPH,Wind Direction,Wind SpeedMPH,Gust SpeedMPH,PrecipitationIn,Events,Conditions,WindDirDegrees,DateUTC
12:56 AM,-8.0,-14.1,75,29.96,10.0,Calm,Calm,-,N/A,,Clear,0,2013-01-10 09:56:00
1:56 AM,-5.1,-9.9,80,29.94,10.0,NE,3.5,-,N/A,,Partly Cloudy,40,2013-01-10 10:56:00
2:56 AM,-9.0,-14.1,79,29.94,10.0,Calm,Calm,-,N/A,,Clear,0,2013-01-10 11:56:00
3:56 AM,-6.0,-11.0,79,29.95,10.0,Calm,Calm,-,N/A,,Overcast,0,2013-01-10 12:56:00
4:56 AM,-2.9,-7.1,82,29.96,10.0,Calm,Calm,-,N/A,,Overcast,0,2013-01-10 13:56:00
5:56 AM,-0.0,-5.1,79,29.98,10.0,Calm,Calm,-,N/A,,Overcast,0,2013-01-10 14:56:00
6:27 AM,1.4,-4.0,78,29.94,7.0,Calm,Calm,-,N/A,Snow,Light Snow,0,2013-01-10 15:27:00
6:55 AM,1.4,-4.0,78,29.99,5.0,Calm,Calm,-,N/A,Snow,Light Snow,0,2013-01-10 15:55:00
7:55 AM,1.4,-2.2,85,30.01,7.0,Calm,Calm,-,N/A,,Overcast,0,2013-01-10 16:55:00
8:55 AM,5.0,-0.4,78,30.04,7.0,East,3.5,-,N/A,,Overcast,80,2013-01-10 17:55:00
9:15 AM,5.0,-0.4,78,30.00,5.0,East,3.5,-,N/A,Snow,Light Snow,80,2013-01-10 18:15:00
9:40 AM,5.0,-0.4,78,29.99,7.0,East,3.5,-,N/A,,Overcast,80,2013-01-10 18:40:00
9:55 AM,5.0,1.4,85,30.04,7.0,Calm,Calm,-,N/A,,Overcast,0,2013-01-10 18:55:00
10:40 AM,5.0,1.4,85,30.00,5.0,Calm,Calm,-,N/A,Snow,Light Snow,0,2013-01-10 19:40:00
10:55 AM,6.8,1.4,79,30.06,5.0,Calm,Calm,-,N/A,Snow,Light Snow,0,2013-01-10 19:55:00
11:15 AM,6.8,1.4,79,30.01,2.0,Calm,Calm,-,N/A,Snow,Light Snow,0,2013-01-10 20:15:00
11:30 AM,6.8,1.4,79,30.01,4.0,Calm,Calm,-,N/A,Snow,Overcast,0,2013-01-10 20:30:00
11:55 AM,6.8,1.4,79,30.07,4.0,Calm,Calm,-,N/A,Snow,Light Snow,0,2013-01-10 20:55:00
12:55 PM,6.8,3.2,85,30.08,2.0,Calm,Calm,-,N/A,Snow,Light Snow,0,2013-01-10 21:55:00
1:55 PM,8.6,5.0,85,30.09,2.0,Calm,Calm,-,N/A,Snow,Light Snow,0,2013-01-10 22:55:00
2:35 PM,8.6,5.0,85,30.05,1.5,Calm,Calm,-,N/A,Snow,Light Snow,0,2013-01-10 23:35:00
2:55 PM,10.4,5.0,79,30.11,3.0,Calm,Calm,-,N/A,Snow,Light Snow,0,2013-01-10 23:55:00
3:14 PM,10.4,6.8,85,30.06,7.0,Calm,Calm,-,N/A,,Overcast,0,2013-01-11 00:14:00
3:55 PM,10.4,6.8,85,30.12,7.0,Calm,Calm,-,N/A,,Overcast,0,2013-01-11 00:55:00
4:05 PM,10.4,6.8,85,30.07,7.0,Calm,Calm,-,N/A,,Overcast,0,2013-01-11 01:05:00
4:19 PM,10.4,6.8,85,30.07,7.0,ENE,3.5,-,N/A,Snow,Light Snow,70,2013-01-11 01:19:00
4:55 PM,12.2,6.8,79,30.12,7.0,Calm,Calm,-,N/A,Snow,Light Snow,0,2013-01-11 01:55:00
5:55 PM,12.2,8.6,85,30.12,7.0,East,3.5,-,N/A,Snow,Light Snow,90,2013-01-11 02:55:00
6:55 PM,10.4,6.8,85,30.12,7.0,ENE,5.8,-,N/A,,Overcast,70,2013-01-11 03:55:00
7:55 PM,12.2,8.6,85,30.10,7.0,East,4.6,-,N/A,,Overcast,80,2013-01-11 04:55:00
8:55 PM,12.2,8.6,85,30.10,7.0,Calm,Calm,-,N/A,,Overcast,0,2013-01-11 05:55:00
9:55 PM,12.2,8.6,85,30.08,7.0,Calm,Calm,-,N/A,,Overcast,0,2013-01-11 06:55:00
10:56 PM,7.0,3.0,84,30.04,10.0,Calm,Calm,-,N/A,,Mostly Cloudy,0,2013-01-11 07:56:00
11:56 PM,7.0,3.0,84,30.03,10.0,Calm,Calm,-,N/A,,Overcast,0,2013-01-11 08:56:00